sensor_id;sensor_type;location;lat;lon;timestamp;P1;durP1;ratioP1;P2;durP2;ratioP2
41623;SDS011;27319;50.306;18.926;2023-07-28T00:02:59;2.92;;;2.10;;
41623;SDS011;27319;50.306;18.926;2023-07-28T00:06:00;4.13;;;2.28;;
41623;SDS011;27319;50.306;18.926;2023-07-28T00:10:02;3.40;;;2.20;;
41623;SDS011;27319;50.306;18.926;2023-07-28T00:14:02;3.38;;;2.25;;
41623;SDS011;27319;50.306;18.926;2023-07-28T00:17:03;4.18;;;2.50;;
41623;SDS011;27319;50.306;18.926;2023-07-28T00:20:04;2.88;;;2.35;;
41623;SDS011;27319;50.306;18.926;2023-07-28T00:24:05;3.20;;;2.33;;
41623;SDS011;27319;50.306;18.926;2023-07-28T00:27:41;4.47;;;2.30;;
41623;SDS011;27319;50.306;18.926;2023-07-28T00:31:42;4.20;;;2.13;;
41623;SDS011;27319;50.306;18.926;2023-07-28T00:34:43;3.45;;;2.55;;
41623;SDS011;27319;50.306;18.926;2023-07-28T00:38:44;2.67;;;2.10;;
41623;SDS011;27319;50.306;18.926;2023-07-28T00:41:45;3.22;;;2.17;;
41623;SDS011;27319;50.306;18.926;2023-07-28T00:48:44;2.28;;;1.73;;
41623;SDS011;27319;50.306;18.926;2023-07-28T00:52:45;3.92;;;1.80;;
41623;SDS011;27319;50.306;18.926;2023-07-28T00:56:46;3.78;;;2.22;;
41623;SDS011;27319;50.306;18.926;2023-07-28T00:59:47;2.72;;;2.00;;
41623;SDS011;27319;50.306;18.926;2023-07-28T01:02:48;3.28;;;2.22;;
41623;SDS011;27319;50.306;18.926;2023-07-28T01:06:53;2.85;;;1.83;;
41623;SDS011;27319;50.306;18.926;2023-07-28T01:10:56;2.85;;;1.58;;
41623;SDS011;27319;50.306;18.926;2023-07-28T01:14:56;4.60;;;2.30;;
41623;SDS011;27319;50.306;18.926;2023-07-28T01:18:57;2.55;;;1.80;;
41623;SDS011;27319;50.306;18.926;2023-07-28T01:22:06;3.00;;;2.10;;
41623;SDS011;27319;50.306;18.926;2023-07-28T01:28:43;2.60;;;2.00;;
41623;SDS011;27319;50.306;18.926;2023-07-28T01:31:46;3.13;;;2.28;;
41623;SDS011;27319;50.306;18.926;2023-07-28T01:34:50;3.17;;;2.10;;
41623;SDS011;27319;50.306;18.926;2023-07-28T01:37:50;3.00;;;2.00;;
41623;SDS011;27319;50.306;18.926;2023-07-28T01:41:06;2.88;;;1.95;;
41623;SDS011;27319;50.306;18.926;2023-07-28T01:45:08;2.35;;;1.80;;
41623;SDS011;27319;50.306;18.926;2023-07-28T01:49:09;3.28;;;2.13;;
41623;SDS011;27319;50.306;18.926;2023-07-28T01:53:09;2.75;;;2.00;;
41623;SDS011;27319;50.306;18.926;2023-07-28T01:56:10;2.83;;;1.83;;
41623;SDS011;27319;50.306;18.926;2023-07-28T01:59:47;2.78;;;1.83;;
41623;SDS011;27319;50.306;18.926;2023-07-28T02:02:48;5.38;;;1.90;;
41623;SDS011;27319;50.306;18.926;2023-07-28T02:05:50;3.05;;;2.05;;
41623;SDS011;27319;50.306;18.926;2023-07-28T02:08:51;2.70;;;1.80;;
41623;SDS011;27319;50.306;18.926;2023-07-28T02:11:52;2.78;;;1.90;;
41623;SDS011;27319;50.306;18.926;2023-07-28T02:15:52;4.43;;;2.00;;
41623;SDS011;27319;50.306;18.926;2023-07-28T02:19:04;2.85;;;1.77;;
41623;SDS011;27319;50.306;18.926;2023-07-28T02:22:06;2.45;;;1.73;;
41623;SDS011;27319;50.306;18.926;2023-07-28T02:25:55;2.45;;;1.63;;
41623;SDS011;27319;50.306;18.926;2023-07-28T02:29:52;1.95;;;1.70;;
41623;SDS011;27319;50.306;18.926;2023-07-28T02:33:53;3.33;;;2.10;;
41623;SDS011;27319;50.306;18.926;2023-07-28T02:37:32;3.97;;;2.35;;
41623;SDS011;27319;50.306;18.926;2023-07-28T02:41:33;3.25;;;1.98;;
41623;SDS011;27319;50.306;18.926;2023-07-28T02:45:34;3.13;;;1.75;;
41623;SDS011;27319;50.306;18.926;2023-07-28T02:49:35;3.22;;;2.33;;
41623;SDS011;27319;50.306;18.926;2023-07-28T02:52:36;2.50;;;2.13;;
41623;SDS011;27319;50.306;18.926;2023-07-28T02:56:36;2.95;;;2.30;;
41623;SDS011;27319;50.306;18.926;2023-07-28T02:59:54;3.28;;;2.10;;
41623;SDS011;27319;50.306;18.926;2023-07-28T03:02:55;3.38;;;2.20;;
41623;SDS011;27319;50.306;18.926;2023-07-28T03:05:56;3.20;;;2.20;;
41623;SDS011;27319;50.306;18.926;2023-07-28T03:09:00;4.28;;;2.33;;
41623;SDS011;27319;50.306;18.926;2023-07-28T03:13:01;3.47;;;2.30;;
41623;SDS011;27319;50.306;18.926;2023-07-28T03:17:02;3.25;;;2.30;;
41623;SDS011;27319;50.306;18.926;2023-07-28T03:20:03;3.67;;;2.53;;
41623;SDS011;27319;50.306;18.926;2023-07-28T03:23:05;3.42;;;2.72;;
41623;SDS011;27319;50.306;18.926;2023-07-28T03:27:06;3.90;;;2.67;;
41623;SDS011;27319;50.306;18.926;2023-07-28T03:31:07;3.05;;;2.00;;
41623;SDS011;27319;50.306;18.926;2023-07-28T03:34:08;3.10;;;2.22;;
41623;SDS011;27319;50.306;18.926;2023-07-28T03:37:09;2.75;;;2.40;;
41623;SDS011;27319;50.306;18.926;2023-07-28T03:40:10;2.83;;;2.20;;
41623;SDS011;27319;50.306;18.926;2023-07-28T03:43:11;2.15;;;1.90;;
41623;SDS011;27319;50.306;18.926;2023-07-28T03:47:12;3.35;;;2.08;;
41623;SDS011;27319;50.306;18.926;2023-07-28T03:51:13;2.17;;;1.63;;
41623;SDS011;27319;50.306;18.926;2023-07-28T03:54:13;4.45;;;1.90;;
41623;SDS011;27319;50.306;18.926;2023-07-28T03:58:14;3.60;;;2.10;;
41623;SDS011;27319;50.306;18.926;2023-07-28T04:02:15;3.80;;;2.10;;
41623;SDS011;27319;50.306;18.926;2023-07-28T04:05:56;3.10;;;2.20;;
41623;SDS011;27319;50.306;18.926;2023-07-28T04:08:57;2.80;;;2.20;;
41623;SDS011;27319;50.306;18.926;2023-07-28T04:11:57;3.83;;;2.25;;
41623;SDS011;27319;50.306;18.926;2023-07-28T04:14:59;3.78;;;2.25;;
41623;SDS011;27319;50.306;18.926;2023-07-28T04:19:00;3.05;;;2.00;;
41623;SDS011;27319;50.306;18.926;2023-07-28T04:22:01;3.30;;;2.20;;
41623;SDS011;27319;50.306;18.926;2023-07-28T04:25:02;3.33;;;2.15;;
41623;SDS011;27319;50.306;18.926;2023-07-28T04:28:03;3.88;;;2.28;;
41623;SDS011;27319;50.306;18.926;2023-07-28T04:31:04;4.75;;;2.20;;
41623;SDS011;27319;50.306;18.926;2023-07-28T04:34:05;3.60;;;2.20;;
41623;SDS011;27319;50.306;18.926;2023-07-28T04:37:06;4.70;;;2.22;;
41623;SDS011;27319;50.306;18.926;2023-07-28T04:40:07;3.63;;;2.28;;
41623;SDS011;27319;50.306;18.926;2023-07-28T04:43:09;3.47;;;2.30;;
41623;SDS011;27319;50.306;18.926;2023-07-28T04:46:58;4.30;;;2.78;;
41623;SDS011;27319;50.306;18.926;2023-07-28T04:50:59;3.13;;;1.98;;
41623;SDS011;27319;50.306;18.926;2023-07-28T04:54:00;3.67;;;2.10;;
41623;SDS011;27319;50.306;18.926;2023-07-28T04:57:05;2.65;;;1.60;;
41623;SDS011;27319;50.306;18.926;2023-07-28T05:01:06;3.45;;;2.20;;
41623;SDS011;27319;50.306;18.926;2023-07-28T05:05:07;4.43;;;2.25;;
41623;SDS011;27319;50.306;18.926;2023-07-28T05:08:08;3.65;;;2.20;;
41623;SDS011;27319;50.306;18.926;2023-07-28T05:12:04;2.00;;;1.63;;
41623;SDS011;27319;50.306;18.926;2023-07-28T05:16:05;3.58;;;2.17;;
41623;SDS011;27319;50.306;18.926;2023-07-28T05:20:06;2.63;;;1.95;;
41623;SDS011;27319;50.306;18.926;2023-07-28T05:23:07;4.05;;;2.33;;
41623;SDS011;27319;50.306;18.926;2023-07-28T05:27:08;4.18;;;2.22;;
41623;SDS011;27319;50.306;18.926;2023-07-28T05:30:09;2.40;;;2.00;;
41623;SDS011;27319;50.306;18.926;2023-07-28T05:34:10;3.08;;;1.95;;
41623;SDS011;27319;50.306;18.926;2023-07-28T05:38:10;3.45;;;2.30;;
41623;SDS011;27319;50.306;18.926;2023-07-28T05:41:11;3.88;;;2.60;;
41623;SDS011;27319;50.306;18.926;2023-07-28T05:44:12;3.40;;;2.97;;
41623;SDS011;27319;50.306;18.926;2023-07-28T05:48:13;2.72;;;2.15;;
41623;SDS011;27319;50.306;18.926;2023-07-28T05:52:10;2.50;;;1.75;;
41623;SDS011;27319;50.306;18.926;2023-07-28T05:55:14;5.25;;;2.05;;
41623;SDS011;27319;50.306;18.926;2023-07-28T05:58:14;6.13;;;2.30;;
41623;SDS011;27319;50.306;18.926;2023-07-28T06:01:16;2.58;;;2.10;;
41623;SDS011;27319;50.306;18.926;2023-07-28T06:05:16;3.78;;;2.30;;
41623;SDS011;27319;50.306;18.926;2023-07-28T06:09:17;3.08;;;2.35;;
41623;SDS011;27319;50.306;18.926;2023-07-28T06:12:18;3.10;;;2.38;;
41623;SDS011;27319;50.306;18.926;2023-07-28T06:15:20;3.83;;;2.55;;
41623;SDS011;27319;50.306;18.926;2023-07-28T06:18:20;4.20;;;2.60;;
41623;SDS011;27319;50.306;18.926;2023-07-28T06:21:23;3.58;;;2.72;;
41623;SDS011;27319;50.306;18.926;2023-07-28T06:24:23;6.50;;;3.72;;
41623;SDS011;27319;50.306;18.926;2023-07-28T06:28:24;4.43;;;3.60;;
41623;SDS011;27319;50.306;18.926;2023-07-28T06:32:25;4.38;;;3.10;;
41623;SDS011;27319;50.306;18.926;2023-07-28T06:35:28;4.45;;;3.47;;
41623;SDS011;27319;50.306;18.926;2023-07-28T06:39:29;4.68;;;3.38;;
41623;SDS011;27319;50.306;18.926;2023-07-28T06:43:29;4.57;;;3.50;;
41623;SDS011;27319;50.306;18.926;2023-07-28T06:46:30;5.78;;;4.45;;
41623;SDS011;27319;50.306;18.926;2023-07-28T06:49:32;8.85;;;4.60;;
41623;SDS011;27319;50.306;18.926;2023-07-28T06:53:32;7.85;;;3.90;;
41623;SDS011;27319;50.306;18.926;2023-07-28T06:57:33;5.88;;;4.13;;
41623;SDS011;27319;50.306;18.926;2023-07-28T07:00:35;5.13;;;4.10;;
41623;SDS011;27319;50.306;18.926;2023-07-28T07:03:37;5.68;;;4.18;;
41623;SDS011;27319;50.306;18.926;2023-07-28T07:07:39;5.10;;;4.07;;
41623;SDS011;27319;50.306;18.926;2023-07-28T07:11:13;5.32;;;4.50;;
41623;SDS011;27319;50.306;18.926;2023-07-28T07:14:14;5.22;;;4.40;;
41623;SDS011;27319;50.306;18.926;2023-07-28T07:17:37;5.95;;;4.25;;
41623;SDS011;27319;50.306;18.926;2023-07-28T07:20:38;7.18;;;4.32;;
41623;SDS011;27319;50.306;18.926;2023-07-28T07:23:39;5.43;;;3.20;;
41623;SDS011;27319;50.306;18.926;2023-07-28T07:26:40;5.20;;;3.85;;
41623;SDS011;27319;50.306;18.926;2023-07-28T07:29:41;4.70;;;3.72;;
41623;SDS011;27319;50.306;18.926;2023-07-28T07:32:42;5.65;;;4.18;;
41623;SDS011;27319;50.306;18.926;2023-07-28T07:35:43;4.05;;;3.50;;
41623;SDS011;27319;50.306;18.926;2023-07-28T07:39:44;5.68;;;4.22;;
41623;SDS011;27319;50.306;18.926;2023-07-28T07:42:46;5.43;;;4.80;;
41623;SDS011;27319;50.306;18.926;2023-07-28T07:45:49;6.82;;;5.30;;
41623;SDS011;27319;50.306;18.926;2023-07-28T07:48:51;6.57;;;4.90;;
41623;SDS011;27319;50.306;18.926;2023-07-28T07:52:52;6.40;;;5.15;;
41623;SDS011;27319;50.306;18.926;2023-07-28T07:55:53;5.53;;;3.85;;
41623;SDS011;27319;50.306;18.926;2023-07-28T07:59:54;6.43;;;3.97;;
41623;SDS011;27319;50.306;18.926;2023-07-28T08:02:54;5.00;;;3.25;;
41623;SDS011;27319;50.306;18.926;2023-07-28T08:05:56;5.32;;;3.92;;
41623;SDS011;27319;50.306;18.926;2023-07-28T08:08:57;5.93;;;4.25;;
41623;SDS011;27319;50.306;18.926;2023-07-28T08:12:20;5.95;;;3.92;;
41623;SDS011;27319;50.306;18.926;2023-07-28T08:16:21;8.48;;;5.15;;
41623;SDS011;27319;50.306;18.926;2023-07-28T08:19:22;5.93;;;4.38;;
41623;SDS011;27319;50.306;18.926;2023-07-28T08:22:23;7.65;;;4.95;;
41623;SDS011;27319;50.306;18.926;2023-07-28T08:25:25;7.35;;;5.43;;
41623;SDS011;27319;50.306;18.926;2023-07-28T08:28:26;6.97;;;4.90;;
41623;SDS011;27319;50.306;18.926;2023-07-28T08:31:27;9.45;;;5.95;;
41623;SDS011;27319;50.306;18.926;2023-07-28T08:34:28;8.48;;;6.53;;
41623;SDS011;27319;50.306;18.926;2023-07-28T08:38:29;9.38;;;6.63;;
41623;SDS011;27319;50.306;18.926;2023-07-28T08:42:30;7.75;;;6.25;;
41623;SDS011;27319;50.306;18.926;2023-07-28T08:45:35;7.70;;;6.05;;
41623;SDS011;27319;50.306;18.926;2023-07-28T08:49:04;6.70;;;5.82;;
41623;SDS011;27319;50.306;18.926;2023-07-28T08:52:14;7.47;;;6.32;;
41623;SDS011;27319;50.306;18.926;2023-07-28T08:55:55;8.20;;;5.93;;
41623;SDS011;27319;50.306;18.926;2023-07-28T08:59:55;6.47;;;5.55;;
41623;SDS011;27319;50.306;18.926;2023-07-28T09:03:56;4.68;;;4.18;;
41623;SDS011;27319;50.306;18.926;2023-07-28T09:07:13;6.15;;;4.55;;
41623;SDS011;27319;50.306;18.926;2023-07-28T09:10:44;5.88;;;4.45;;
41623;SDS011;27319;50.306;18.926;2023-07-28T09:14:44;5.82;;;3.95;;
41623;SDS011;27319;50.306;18.926;2023-07-28T09:18:29;8.10;;;4.78;;
41623;SDS011;27319;50.306;18.926;2023-07-28T09:22:30;5.53;;;4.07;;
41623;SDS011;27319;50.306;18.926;2023-07-28T09:26:41;5.13;;;3.75;;
41623;SDS011;27319;50.306;18.926;2023-07-28T09:29:49;6.13;;;3.60;;
41623;SDS011;27319;50.306;18.926;2023-07-28T09:33:49;6.60;;;3.92;;
41623;SDS011;27319;50.306;18.926;2023-07-28T09:36:50;5.95;;;3.47;;
41623;SDS011;27319;50.306;18.926;2023-07-28T09:39:52;4.05;;;3.65;;
41623;SDS011;27319;50.306;18.926;2023-07-28T09:43:52;5.45;;;4.32;;
41623;SDS011;27319;50.306;18.926;2023-07-28T09:47:56;6.55;;;4.50;;
41623;SDS011;27319;50.306;18.926;2023-07-28T09:51:56;6.07;;;3.65;;
41623;SDS011;27319;50.306;18.926;2023-07-28T09:55:55;4.97;;;3.47;;
41623;SDS011;27319;50.306;18.926;2023-07-28T09:59:56;5.15;;;3.55;;
41623;SDS011;27319;50.306;18.926;2023-07-28T10:03:57;4.90;;;3.15;;
41623;SDS011;27319;50.306;18.926;2023-07-28T10:07:42;4.32;;;3.35;;
41623;SDS011;27319;50.306;18.926;2023-07-28T10:11:42;4.60;;;2.78;;
41623;SDS011;27319;50.306;18.926;2023-07-28T10:14:43;4.78;;;4.13;;
41623;SDS011;27319;50.306;18.926;2023-07-28T10:18:54;3.53;;;3.10;;
41623;SDS011;27319;50.306;18.926;2023-07-28T10:21:58;5.25;;;3.25;;
41623;SDS011;27319;50.306;18.926;2023-07-28T10:25:59;4.72;;;3.85;;
41623;SDS011;27319;50.306;18.926;2023-07-28T10:29:59;6.53;;;4.10;;
41623;SDS011;27319;50.306;18.926;2023-07-28T10:33:01;4.20;;;3.63;;
41623;SDS011;27319;50.306;18.926;2023-07-28T10:36:36;4.22;;;3.22;;
41623;SDS011;27319;50.306;18.926;2023-07-28T10:39:37;5.10;;;3.30;;
41623;SDS011;27319;50.306;18.926;2023-07-28T10:42:38;4.20;;;2.97;;
41623;SDS011;27319;50.306;18.926;2023-07-28T10:45:39;4.20;;;3.17;;
41623;SDS011;27319;50.306;18.926;2023-07-28T10:48:44;6.00;;;3.38;;
41623;SDS011;27319;50.306;18.926;2023-07-28T10:51:47;3.92;;;3.08;;
41623;SDS011;27319;50.306;18.926;2023-07-28T10:54:49;3.53;;;2.83;;
41623;SDS011;27319;50.306;18.926;2023-07-28T10:57:50;3.63;;;3.25;;
41623;SDS011;27319;50.306;18.926;2023-07-28T11:01:20;4.07;;;3.67;;
41623;SDS011;27319;50.306;18.926;2023-07-28T11:04:21;3.28;;;2.53;;
41623;SDS011;27319;50.306;18.926;2023-07-28T11:07:30;4.10;;;2.78;;
41623;SDS011;27319;50.306;18.926;2023-07-28T11:10:31;3.70;;;2.33;;
41623;SDS011;27319;50.306;18.926;2023-07-28T11:13:33;2.92;;;2.33;;
41623;SDS011;27319;50.306;18.926;2023-07-28T11:16:34;4.70;;;3.90;;
41623;SDS011;27319;50.306;18.926;2023-07-28T11:19:36;4.30;;;2.33;;
41623;SDS011;27319;50.306;18.926;2023-07-28T11:22:37;4.47;;;2.58;;
41623;SDS011;27319;50.306;18.926;2023-07-28T11:25:56;3.45;;;2.50;;
41623;SDS011;27319;50.306;18.926;2023-07-28T11:28:57;3.45;;;2.30;;
41623;SDS011;27319;50.306;18.926;2023-07-28T11:32:00;3.45;;;2.05;;
41623;SDS011;27319;50.306;18.926;2023-07-28T11:35:08;2.30;;;2.10;;
41623;SDS011;27319;50.306;18.926;2023-07-28T11:38:48;3.53;;;2.67;;
41623;SDS011;27319;50.306;18.926;2023-07-28T11:42:29;4.55;;;2.08;;
41623;SDS011;27319;50.306;18.926;2023-07-28T11:45:47;3.45;;;2.42;;
41623;SDS011;27319;50.306;18.926;2023-07-28T11:48:48;2.95;;;1.77;;
41623;SDS011;27319;50.306;18.926;2023-07-28T11:52:37;3.28;;;2.00;;
41623;SDS011;27319;50.306;18.926;2023-07-28T11:56:38;2.45;;;1.90;;
41623;SDS011;27319;50.306;18.926;2023-07-28T12:00:39;3.22;;;1.90;;
41623;SDS011;27319;50.306;18.926;2023-07-28T12:04:21;4.28;;;2.40;;
41623;SDS011;27319;50.306;18.926;2023-07-28T12:08:33;2.25;;;1.83;;
41623;SDS011;27319;50.306;18.926;2023-07-28T12:12:04;2.60;;;1.85;;
41623;SDS011;27319;50.306;18.926;2023-07-28T12:15:18;2.60;;;1.92;;
41623;SDS011;27319;50.306;18.926;2023-07-28T12:18:57;2.60;;;2.10;;
41623;SDS011;27319;50.306;18.926;2023-07-28T12:22:14;2.78;;;1.95;;
41623;SDS011;27319;50.306;18.926;2023-07-28T12:25:15;2.70;;;1.67;;
41623;SDS011;27319;50.306;18.926;2023-07-28T12:28:16;2.10;;;1.70;;
41623;SDS011;27319;50.306;18.926;2023-07-28T12:32:17;4.43;;;1.73;;
41623;SDS011;27319;50.306;18.926;2023-07-28T12:36:18;2.13;;;1.52;;
41623;SDS011;27319;50.306;18.926;2023-07-28T12:39:54;2.58;;;1.38;;
41623;SDS011;27319;50.306;18.926;2023-07-28T12:43:55;3.40;;;1.75;;
41623;SDS011;27319;50.306;18.926;2023-07-28T12:47:56;2.60;;;1.63;;
41623;SDS011;27319;50.306;18.926;2023-07-28T12:52:00;1.63;;;1.40;;
41623;SDS011;27319;50.306;18.926;2023-07-28T12:56:01;2.00;;;1.58;;
41623;SDS011;27319;50.306;18.926;2023-07-28T13:00:02;1.52;;;1.35;;
41623;SDS011;27319;50.306;18.926;2023-07-28T13:04:02;2.25;;;1.42;;
41623;SDS011;27319;50.306;18.926;2023-07-28T13:08:03;1.80;;;1.42;;
41623;SDS011;27319;50.306;18.926;2023-07-28T13:12:04;2.00;;;1.60;;
41623;SDS011;27319;50.306;18.926;2023-07-28T13:16:05;1.98;;;1.33;;
41623;SDS011;27319;50.306;18.926;2023-07-28T13:20:06;1.30;;;1.20;;
41623;SDS011;27319;50.306;18.926;2023-07-28T13:24:07;2.33;;;1.85;;
41623;SDS011;27319;50.306;18.926;2023-07-28T13:28:07;2.38;;;2.00;;
41623;SDS011;27319;50.306;18.926;2023-07-28T13:31:48;2.85;;;2.10;;
41623;SDS011;27319;50.306;18.926;2023-07-28T13:35:35;2.03;;;1.80;;
41623;SDS011;27319;50.306;18.926;2023-07-28T13:39:36;4.70;;;1.98;;
41623;SDS011;27319;50.306;18.926;2023-07-28T13:43:37;3.92;;;1.80;;
41623;SDS011;27319;50.306;18.926;2023-07-28T13:47:38;1.90;;;1.70;;
41623;SDS011;27319;50.306;18.926;2023-07-28T13:51:38;1.98;;;1.70;;
41623;SDS011;27319;50.306;18.926;2023-07-28T13:55:14;1.90;;;1.40;;
41623;SDS011;27319;50.306;18.926;2023-07-28T13:59:15;1.80;;;1.40;;
41623;SDS011;27319;50.306;18.926;2023-07-28T14:03:16;1.80;;;1.60;;
41623;SDS011;27319;50.306;18.926;2023-07-28T14:07:17;3.05;;;1.88;;
41623;SDS011;27319;50.306;18.926;2023-07-28T14:10:57;1.50;;;1.40;;
41623;SDS011;27319;50.306;18.926;2023-07-28T14:14:58;1.80;;;1.42;;
41623;SDS011;27319;50.306;18.926;2023-07-28T14:18:41;3.13;;;1.50;;
41623;SDS011;27319;50.306;18.926;2023-07-28T14:22:42;1.70;;;1.60;;
41623;SDS011;27319;50.306;18.926;2023-07-28T14:26:31;1.83;;;1.63;;
41623;SDS011;27319;50.306;18.926;2023-07-28T14:30:32;1.50;;;1.38;;
41623;SDS011;27319;50.306;18.926;2023-07-28T14:33:33;1.95;;;1.50;;
41623;SDS011;27319;50.306;18.926;2023-07-28T14:37:34;3.08;;;1.73;;
41623;SDS011;27319;50.306;18.926;2023-07-28T14:41:35;2.03;;;1.38;;
41623;SDS011;27319;50.306;18.926;2023-07-28T14:44:43;2.55;;;1.70;;
41623;SDS011;27319;50.306;18.926;2023-07-28T14:48:44;2.33;;;1.70;;
41623;SDS011;27319;50.306;18.926;2023-07-28T14:52:29;2.22;;;1.75;;
41623;SDS011;27319;50.306;18.926;2023-07-28T14:56:29;3.28;;;2.30;;
41623;SDS011;27319;50.306;18.926;2023-07-28T15:00:15;3.83;;;2.00;;
41623;SDS011;27319;50.306;18.926;2023-07-28T15:04:16;3.08;;;2.15;;
41623;SDS011;27319;50.306;18.926;2023-07-28T15:08:17;10.77;;;2.10;;
41623;SDS011;27319;50.306;18.926;2023-07-28T15:12:18;2.10;;;1.70;;
41623;SDS011;27319;50.306;18.926;2023-07-28T15:16:19;2.28;;;1.70;;
41623;SDS011;27319;50.306;18.926;2023-07-28T15:20:19;1.63;;;1.45;;
41623;SDS011;27319;50.306;18.926;2023-07-28T15:24:20;2.65;;;1.75;;
41623;SDS011;27319;50.306;18.926;2023-07-28T15:28:21;2.25;;;1.73;;
41623;SDS011;27319;50.306;18.926;2023-07-28T15:32:22;2.80;;;1.83;;
41623;SDS011;27319;50.306;18.926;2023-07-28T15:36:23;2.22;;;1.60;;
41623;SDS011;27319;50.306;18.926;2023-07-28T15:39:51;3.80;;;2.00;;
41623;SDS011;27319;50.306;18.926;2023-07-28T15:43:52;2.47;;;1.90;;
41623;SDS011;27319;50.306;18.926;2023-07-28T15:47:28;2.90;;;1.70;;
41623;SDS011;27319;50.306;18.926;2023-07-28T15:51:29;1.98;;;1.63;;
41623;SDS011;27319;50.306;18.926;2023-07-28T15:54:45;1.70;;;1.40;;
41623;SDS011;27319;50.306;18.926;2023-07-28T15:57:46;2.58;;;1.33;;
41623;SDS011;27319;50.306;18.926;2023-07-28T16:01:47;1.55;;;1.30;;
41623;SDS011;27319;50.306;18.926;2023-07-28T16:05:48;2.33;;;1.60;;
41623;SDS011;27319;50.306;18.926;2023-07-28T16:08:49;2.03;;;1.58;;
41623;SDS011;27319;50.306;18.926;2023-07-28T16:11:50;1.55;;;1.20;;
41623;SDS011;27319;50.306;18.926;2023-07-28T16:15:31;2.65;;;1.67;;
41623;SDS011;27319;50.306;18.926;2023-07-28T16:19:31;1.60;;;1.50;;
41623;SDS011;27319;50.306;18.926;2023-07-28T16:23:20;1.90;;;1.52;;
41623;SDS011;27319;50.306;18.926;2023-07-28T16:27:21;2.28;;;1.45;;
41623;SDS011;27319;50.306;18.926;2023-07-28T16:31:21;5.65;;;2.90;;
41623;SDS011;27319;50.306;18.926;2023-07-28T16:35:22;3.00;;;1.80;;
41623;SDS011;27319;50.306;18.926;2023-07-28T16:39:19;3.20;;;1.73;;
41623;SDS011;27319;50.306;18.926;2023-07-28T16:43:19;3.05;;;1.50;;
41623;SDS011;27319;50.306;18.926;2023-07-28T16:47:23;3.75;;;1.58;;
41623;SDS011;27319;50.306;18.926;2023-07-28T16:51:24;3.65;;;2.20;;
41623;SDS011;27319;50.306;18.926;2023-07-28T16:54:25;3.17;;;2.30;;
41623;SDS011;27319;50.306;18.926;2023-07-28T16:58:26;3.67;;;3.20;;
41623;SDS011;27319;50.306;18.926;2023-07-28T17:02:27;3.28;;;2.08;;
41623;SDS011;27319;50.306;18.926;2023-07-28T17:05:27;2.05;;;1.75;;
41623;SDS011;27319;50.306;18.926;2023-07-28T17:08:29;1.88;;;1.50;;
41623;SDS011;27319;50.306;18.926;2023-07-28T17:12:29;6.55;;;3.80;;
41623;SDS011;27319;50.306;18.926;2023-07-28T17:16:30;2.80;;;2.10;;
41623;SDS011;27319;50.306;18.926;2023-07-28T17:20:31;2.75;;;1.73;;
41623;SDS011;27319;50.306;18.926;2023-07-28T17:24:32;4.03;;;1.63;;
41623;SDS011;27319;50.306;18.926;2023-07-28T17:27:33;2.40;;;2.10;;
41623;SDS011;27319;50.306;18.926;2023-07-28T17:30:54;2.50;;;1.95;;
41623;SDS011;27319;50.306;18.926;2023-07-28T17:34:36;3.85;;;2.50;;
41623;SDS011;27319;50.306;18.926;2023-07-28T17:38:38;2.33;;;1.88;;
41623;SDS011;27319;50.306;18.926;2023-07-28T17:41:38;2.40;;;2.20;;
41623;SDS011;27319;50.306;18.926;2023-07-28T17:44:40;2.95;;;2.65;;
41623;SDS011;27319;50.306;18.926;2023-07-28T17:48:40;4.28;;;2.78;;
41623;SDS011;27319;50.306;18.926;2023-07-28T17:51:41;2.50;;;2.30;;
41623;SDS011;27319;50.306;18.926;2023-07-28T17:55:30;3.35;;;2.35;;
41623;SDS011;27319;50.306;18.926;2023-07-28T17:58:31;2.83;;;2.05;;
41623;SDS011;27319;50.306;18.926;2023-07-28T18:02:32;3.42;;;3.00;;
41623;SDS011;27319;50.306;18.926;2023-07-28T18:06:33;2.83;;;2.60;;
41623;SDS011;27319;50.306;18.926;2023-07-28T18:10:21;2.40;;;2.10;;
41623;SDS011;27319;50.306;18.926;2023-07-28T18:14:22;2.58;;;2.03;;
41623;SDS011;27319;50.306;18.926;2023-07-28T18:17:43;2.70;;;2.10;;
41623;SDS011;27319;50.306;18.926;2023-07-28T18:21:44;3.30;;;2.58;;
41623;SDS011;27319;50.306;18.926;2023-07-28T18:25:44;3.22;;;2.80;;
41623;SDS011;27319;50.306;18.926;2023-07-28T18:29:45;3.10;;;2.10;;
41623;SDS011;27319;50.306;18.926;2023-07-28T18:33:49;2.95;;;2.13;;
41623;SDS011;27319;50.306;18.926;2023-07-28T18:37:50;2.72;;;2.00;;
41623;SDS011;27319;50.306;18.926;2023-07-28T18:40:51;3.85;;;2.10;;
41623;SDS011;27319;50.306;18.926;2023-07-28T18:44:52;2.63;;;2.10;;
41623;SDS011;27319;50.306;18.926;2023-07-28T18:47:52;3.28;;;2.22;;
41623;SDS011;27319;50.306;18.926;2023-07-28T18:50:53;7.18;;;4.25;;
41623;SDS011;27319;50.306;18.926;2023-07-28T18:53:56;5.43;;;2.53;;
41623;SDS011;27319;50.306;18.926;2023-07-28T18:57:57;3.25;;;2.08;;
41623;SDS011;27319;50.306;18.926;2023-07-28T19:01:57;3.20;;;2.40;;
41623;SDS011;27319;50.306;18.926;2023-07-28T19:06:00;3.42;;;2.80;;
41623;SDS011;27319;50.306;18.926;2023-07-28T19:09:00;3.13;;;2.83;;
41623;SDS011;27319;50.306;18.926;2023-07-28T19:12:29;3.17;;;2.58;;
41623;SDS011;27319;50.306;18.926;2023-07-28T19:15:30;4.30;;;2.63;;
41623;SDS011;27319;50.306;18.926;2023-07-28T19:18:31;3.35;;;2.67;;
41623;SDS011;27319;50.306;18.926;2023-07-28T19:21:32;4.22;;;3.00;;
41623;SDS011;27319;50.306;18.926;2023-07-28T19:24:33;3.75;;;3.10;;
41623;SDS011;27319;50.306;18.926;2023-07-28T19:27:55;4.20;;;2.60;;
41623;SDS011;27319;50.306;18.926;2023-07-28T19:30:57;3.67;;;2.60;;
41623;SDS011;27319;50.306;18.926;2023-07-28T19:34:03;4.53;;;2.72;;
41623;SDS011;27319;50.306;18.926;2023-07-28T19:37:04;6.30;;;3.00;;
41623;SDS011;27319;50.306;18.926;2023-07-28T19:40:15;9.55;;;3.40;;
41623;SDS011;27319;50.306;18.926;2023-07-28T19:44:16;5.30;;;3.75;;
41623;SDS011;27319;50.306;18.926;2023-07-28T19:48:14;3.92;;;3.05;;
41623;SDS011;27319;50.306;18.926;2023-07-28T19:51:16;3.55;;;2.90;;
41623;SDS011;27319;50.306;18.926;2023-07-28T19:54:17;4.03;;;3.03;;
41623;SDS011;27319;50.306;18.926;2023-07-28T19:58:18;3.75;;;3.10;;
41623;SDS011;27319;50.306;18.926;2023-07-28T20:01:18;4.85;;;3.08;;
41623;SDS011;27319;50.306;18.926;2023-07-28T20:04:19;3.03;;;2.72;;
41623;SDS011;27319;50.306;18.926;2023-07-28T20:07:21;4.05;;;2.80;;
41623;SDS011;27319;50.306;18.926;2023-07-28T20:10:23;3.38;;;3.08;;
41623;SDS011;27319;50.306;18.926;2023-07-28T20:13:24;4.78;;;3.13;;
41623;SDS011;27319;50.306;18.926;2023-07-28T20:16:25;5.20;;;2.95;;
41623;SDS011;27319;50.306;18.926;2023-07-28T20:19:26;3.05;;;2.50;;
41623;SDS011;27319;50.306;18.926;2023-07-28T20:22:27;3.40;;;2.72;;
41623;SDS011;27319;50.306;18.926;2023-07-28T20:25:28;4.05;;;2.63;;
41623;SDS011;27319;50.306;18.926;2023-07-28T20:28:29;4.30;;;2.65;;
41623;SDS011;27319;50.306;18.926;2023-07-28T20:32:30;7.93;;;2.85;;
41623;SDS011;27319;50.306;18.926;2023-07-28T20:35:31;4.00;;;2.88;;
41623;SDS011;27319;50.306;18.926;2023-07-28T20:38:33;5.15;;;2.90;;
41623;SDS011;27319;50.306;18.926;2023-07-28T20:41:56;5.03;;;3.15;;
41623;SDS011;27319;50.306;18.926;2023-07-28T20:45:57;4.53;;;3.28;;
41623;SDS011;27319;50.306;18.926;2023-07-28T20:48:58;5.20;;;3.22;;
41623;SDS011;27319;50.306;18.926;2023-07-28T20:52:59;4.38;;;3.28;;
41623;SDS011;27319;50.306;18.926;2023-07-28T20:57:00;4.47;;;3.10;;
41623;SDS011;27319;50.306;18.926;2023-07-28T21:01:01;5.00;;;3.05;;
41623;SDS011;27319;50.306;18.926;2023-07-28T21:05:02;3.53;;;2.80;;